Flight Track Log - Related Links

Times and Time Zones

All times are in EDT time to prevent confusion due to time zone crossing. See the ASQ5025 flight status page for this flight to view local times or setup timezone preferences in your user account.

Time Position Orientation Groundspeed Altitude Reporting Facility
EDT Latitude Longitude Course Direction KTS MPH feet Rate Location/Type
Thu 11:19:56 AM 44.3028 -73.1797 196° South 297 342 7,200  Level Boston Center
Thu 11:20:56 AM 44.2275 -73.2108 196° South 292 336 10,100 1,750 Climbing Boston Center
Thu 11:21:56 AM 44.1397 -73.2472 197° South 306 352 10,700 1,200 Climbing Boston Center
Thu 11:22:56 AM 44.0331 -73.2892 196° South 371 427 12,500 1,900 Climbing Boston Center
Thu 11:23:00 AM 43.9829 -73.3335 196° South  Level FlightAware Approximate
Thu 11:23:56 AM 43.9286 -73.3308 196° South 396 456 14,500  Level Boston Center
Thu 11:24:00 AM 43.9025 -73.3657 196° South  Level FlightAware Approximate
Thu 11:24:56 AM 43.8033 -73.3836 197° South 421 484 16,900  Level Boston Center
Thu 11:25:56 AM 43.6925 -73.4278 196° South 426 490 18,200 1,350 Climbing Boston Center
Thu 11:26:56 AM 43.5731 -73.4747 196° South 431 496 19,600 1,450 Climbing Boston Center
Thu 11:27:56 AM 43.4500 -73.4983 188° South 443 510 21,100 1,200 Climbing Boston Center
Thu 11:28:56 AM 43.3228 -73.5075 183° South 448 516 22,000 450 Climbing Boston Center
Thu 11:29:56 AM 43.1914 -73.5136 182° South 467 537 22,000 -300 Level Boston Center
Thu 11:30:56 AM 43.0850 -73.5233 184° South 475 547 21,400 -900 Descending Boston Center
Thu 11:31:56 AM 42.9308 -73.5319 182° South 480 552 20,200 -700 Descending Boston Center
Thu 11:32:56 AM 42.8161 -73.5411 183° South 475 547 20,000 -100 Descending Boston Center
Thu 11:33:56 AM 42.6867 -73.5500 183° South 469 540 20,000  Level Boston Center
Thu 11:34:56 AM 42.5428 -73.5589 183° South 474 545 20,000  Level Boston Center
Thu 11:35:56 AM 42.4136 -73.5650 182° South 474 545 20,000  Level Boston Center
Thu 11:36:56 AM 42.2969 -73.5656 180° South 474 545 20,000 -150 Level Boston Center
Thu 11:37:56 AM 42.1675 -73.5717 182° South 474 545 19,700 -950 Descending Boston Center
Thu 11:38:56 AM 42.0258 -73.5858 184° South 479 551 18,100 -850 Descending Boston Center
Thu 11:39:56 AM 41.9214 -73.5925 183° South 440 506 18,000 -150 Descending Boston Center
Thu 11:40:56 AM 41.8067 -73.5986 182° South 389 448 17,800 -750 Descending Boston Center
Thu 11:41:56 AM 41.7372 -73.6808 221° Southwest 361 415 16,500 -1,350 Descending Boston Center
Thu 11:42:56 AM 41.6753 -73.7992 235° Southwest 356 410 15,100 -1,600 Descending Boston Center
Thu 11:43:56 AM 41.5978 -73.8392 201° Southwest 321 369 13,300 -1,800 Descending Boston Center
Thu 11:44:56 AM 41.5036 -73.8647 191° South 321 369 11,500 -1,723 Descending Boston Center
Thu 11:45:30 AM 41.4500 -73.8667 182° South 300 345 10,600 -1,532 Descending New York TRACON
Thu 11:46:30 AM 41.3833 -73.8333 159° South 276 318 9,100 -950 Descending New York TRACON
Thu 11:47:30 AM 41.3333 -73.7833 143° Southeast 243 280 8,700 -800 Descending New York TRACON
Thu 11:48:30 AM 41.2833 -73.7333 143° Southeast 227 261 7,500 -1,252 Descending New York TRACON
Thu 11:49:25 AM 41.2333 -73.7000 153° Southeast 219 252 6,300 -1,211 Descending New York TRACON
Thu 11:50:24 AM 41.1833 -73.6500 143° Southeast 214 246 5,200 -1,109 Descending New York TRACON
Thu 11:51:24 AM 41.1333 -73.6000 143° Southeast 216 249 4,100 -600 Descending New York TRACON
Thu 11:52:24 AM 41.0667 -73.6333 201° Southwest 237 273 4,000 -50 Descending New York TRACON
Thu 11:53:24 AM 41.0167 -73.6833 217° Southwest 246 283 4,000 -350 Level New York TRACON
Thu 11:54:24 AM 40.9667 -73.7167 207° Southwest 202 232 3,300 -650 Descending New York TRACON
Thu 11:55:24 AM 40.9167 -73.7500 207° Southwest 193 222 2,700 -650 Descending New York TRACON
Thu 11:56:24 AM 40.8833 -73.8000 229° Southwest 188 216 2,000 -700 Descending New York TRACON
Thu 11:57:24 AM 40.8333 -73.8333 207° Southwest 166 191 1,300 -744 Descending New York TRACON
Thu 11:58:25 AM 40.8000 -73.8500 201° Southwest 144 166 500 -787 Descending New York TRACON
Thu 12:00:00 PM 40.7667 -73.8667 180° South  Level FlightAware Approximate
Thu 12:07:00 PM 40.7772 -73.8726 180° South  Level Estimated
Thu 12:08:00 PM 40.7772 -73.8726 180° South  Level Estimated

Login

Don't have an account? Register now (free) for customized features, flight alerts, and more!